createdAt,value
2018-01-31T01:52:47.706Z,2.47
2018-01-31T01:55:15.040Z,2.43
2018-01-31T01:57:42.433Z,3.07
2018-01-31T02:00:09.773Z,2.90
2018-01-31T02:02:37.147Z,2.73
2018-01-31T02:07:37.776Z,3.53
2018-01-31T02:10:05.151Z,3.50
2018-01-31T02:12:32.542Z,3.93
2018-01-31T02:14:59.879Z,4.00
2018-01-31T02:17:27.253Z,4.03
2018-01-31T02:19:54.742Z,4.50
2018-01-31T02:22:22.101Z,4.60
2018-01-31T02:24:49.512Z,4.07
2018-01-31T02:27:16.863Z,4.03
2018-01-31T02:29:44.263Z,3.50
2018-01-31T02:32:11.749Z,3.40
2018-01-31T02:34:39.112Z,3.40
2018-01-31T02:37:06.490Z,3.47
2018-01-31T02:39:33.878Z,3.40
2018-01-31T02:42:01.217Z,3.47
2018-01-31T02:44:28.650Z,3.33
2018-01-31T02:46:56.044Z,3.43
2018-01-31T02:49:23.416Z,3.43
2018-01-31T02:51:50.836Z,3.30
2018-01-31T02:54:18.256Z,3.70
2018-01-31T02:56:45.638Z,3.33
2018-01-31T02:59:13.002Z,3.10
2018-01-31T03:01:40.374Z,3.33
2018-01-31T03:04:07.770Z,2.97
2018-01-31T03:06:35.176Z,2.73
2018-01-31T03:09:02.510Z,2.73
2018-01-31T03:11:29.955Z,2.93
2018-01-31T03:13:57.376Z,2.80
2018-01-31T03:16:24.842Z,3.03
2018-01-31T03:18:52.176Z,3.03
2018-01-31T03:21:19.561Z,2.70
2018-01-31T03:23:46.965Z,2.97
2018-01-31T03:26:14.332Z,3.13
2018-01-31T03:28:41.733Z,3.20
2018-01-31T03:31:09.099Z,3.07
2018-01-31T03:33:36.467Z,3.20
2018-01-31T03:36:03.833Z,2.80
2018-01-31T03:38:31.217Z,3.00
2018-01-31T03:40:58.646Z,2.80
2018-01-31T03:43:25.998Z,2.90
2018-01-31T03:45:53.397Z,3.03
2018-01-31T03:48:20.791Z,3.10
2018-01-31T03:50:48.123Z,2.83
2018-01-31T03:53:15.490Z,6.13
2018-01-31T03:55:42.906Z,3.30
2018-01-31T03:58:10.358Z,3.07
2018-01-31T04:00:37.690Z,2.87
2018-01-31T04:03:05.032Z,2.80
2018-01-31T04:05:32.420Z,2.70
2018-01-31T04:07:59.790Z,2.80
2018-01-31T04:10:27.175Z,2.43
2018-01-31T04:12:54.605Z,3.13
2018-01-31T04:15:21.964Z,2.80
2018-01-31T04:17:49.353Z,2.63
2018-01-31T04:20:16.690Z,2.90
2018-01-31T04:22:44.080Z,2.73
2018-01-31T04:25:11.439Z,2.77
2018-01-31T04:27:38.858Z,52.50
2018-01-31T04:30:06.238Z,4.80
2018-01-31T04:32:33.598Z,5.07
2018-01-31T04:35:01.022Z,6.33
2018-01-31T04:37:28.426Z,6.40
2018-01-31T04:39:55.906Z,24.53
2018-01-31T04:42:23.327Z,29.23
2018-01-31T04:44:50.794Z,16.57
2018-01-31T04:47:18.150Z,21.93
2018-01-31T04:49:45.533Z,18.60
2018-01-31T04:52:13.045Z,27.13
2018-01-31T04:54:40.429Z,24.50
2018-01-31T04:57:07.854Z,29.93
2018-01-31T04:59:35.242Z,24.90
2018-01-31T05:02:02.686Z,22.63
2018-01-31T05:04:30.069Z,23.17
2018-01-31T05:06:57.501Z,20.83
2018-01-31T05:09:24.942Z,21.17
2018-01-31T05:11:52.325Z,22.60
2018-01-31T05:14:19.773Z,19.10
2018-01-31T05:16:47.234Z,20.17
2018-01-31T05:19:14.635Z,18.27
2018-01-31T05:21:42.059Z,22.47
2018-01-31T05:24:09.524Z,25.93
2018-01-31T05:26:36.914Z,21.60
2018-01-31T05:29:04.331Z,19.23
2018-01-31T05:31:31.715Z,28.73
2018-01-31T05:33:59.145Z,24.87
2018-01-31T05:36:26.550Z,21.63
2018-01-31T05:38:54.011Z,25.13
2018-01-31T05:41:21.633Z,22.33
2018-01-31T05:43:49.083Z,16.23
2018-01-31T05:46:16.445Z,16.07
2018-01-31T05:48:43.846Z,13.27
2018-01-31T05:51:11.270Z,14.47
2018-01-31T05:53:38.697Z,17.30
2018-01-31T05:56:06.088Z,14.27
2018-01-31T05:58:33.472Z,14.33
2018-01-31T06:01:00.890Z,12.37
2018-01-31T06:03:28.258Z,13.50
2018-01-31T06:05:55.673Z,10.97
2018-01-31T06:08:23.108Z,11.30
2018-01-31T06:10:50.527Z,10.53
2018-01-31T06:13:17.956Z,12.77
2018-01-31T06:15:45.386Z,12.40
2018-01-31T06:18:12.794Z,10.90
2018-01-31T06:20:40.202Z,10.43
2018-01-31T06:23:07.602Z,10.70
2018-01-31T06:25:35.011Z,8.37
2018-01-31T06:28:02.380Z,17.87
2018-01-31T06:30:29.818Z,8.70
2018-01-31T06:32:57.258Z,7.77
2018-01-31T06:35:24.746Z,6.30
2018-01-31T06:37:52.163Z,11.07
2018-01-31T06:40:19.526Z,9.33
2018-01-31T06:42:46.961Z,6.43
2018-01-31T06:45:14.330Z,7.67
2018-01-31T06:47:41.758Z,8.17
2018-01-31T06:50:09.166Z,7.33
2018-01-31T06:52:36.597Z,7.37
2018-01-31T06:55:04.250Z,6.53
2018-01-31T06:57:31.874Z,6.87
2018-01-31T06:59:59.262Z,6.37
2018-01-31T07:02:26.754Z,7.50
2018-01-31T07:04:54.127Z,7.33
2018-01-31T07:07:21.587Z,8.90
2018-01-31T07:09:49.217Z,9.07
2018-01-31T07:12:16.703Z,9.37
2018-01-31T07:14:44.098Z,5.77
2018-01-31T07:17:11.515Z,7.87
2018-01-31T07:19:38.926Z,6.87
2018-01-31T07:22:06.346Z,10.10
2018-01-31T07:24:33.838Z,8.33
2018-01-31T07:27:01.268Z,8.83
2018-01-31T07:29:28.742Z,8.93
2018-01-31T07:31:56.975Z,8.33
2018-01-31T07:34:24.353Z,7.40
2018-01-31T07:36:51.761Z,10.27
2018-01-31T07:39:19.141Z,6.30
2018-01-31T07:41:46.561Z,6.70
2018-01-31T07:44:13.942Z,6.70
2018-01-31T07:46:41.442Z,7.33
2018-01-31T07:49:08.900Z,10.90
2018-01-31T07:51:36.315Z,7.33
2018-01-31T07:54:03.796Z,7.43
2018-01-31T07:56:31.202Z,9.20
2018-01-31T07:58:58.634Z,8.37
2018-01-31T08:01:27.065Z,6.63
2018-01-31T08:03:54.500Z,6.87
2018-01-31T08:06:22.662Z,10.27
2018-01-31T08:08:50.127Z,8.63
2018-01-31T08:11:17.838Z,8.70
2018-01-31T08:13:45.280Z,10.23
2018-01-31T08:16:12.702Z,7.73
2018-01-31T08:18:40.110Z,7.67
2018-01-31T08:21:07.591Z,8.50
2018-01-31T08:23:35.100Z,10.83
2018-01-31T08:26:02.553Z,8.00
2018-01-31T08:28:29.987Z,10.23
2018-01-31T08:30:57.411Z,7.00
2018-01-31T08:33:24.852Z,8.63
2018-01-31T08:35:52.306Z,8.20
2018-01-31T08:38:19.769Z,9.50
2018-01-31T08:40:47.148Z,7.70
2018-01-31T08:43:14.940Z,7.60
2018-01-31T08:45:42.317Z,7.40
2018-01-31T08:48:09.818Z,7.57
2018-01-31T08:50:37.264Z,8.63
2018-01-31T08:53:04.698Z,8.23
2018-01-31T08:55:32.113Z,8.03
2018-01-31T08:57:59.586Z,8.23
2018-01-31T09:00:27.034Z,7.63
2018-01-31T09:02:54.494Z,9.17
2018-01-31T09:05:22.113Z,8.37
2018-01-31T09:07:49.723Z,8.77
2018-01-31T09:10:18.526Z,11.23
2018-01-31T09:12:45.915Z,8.60
2018-01-31T09:15:13.490Z,10.57
2018-01-31T09:17:40.958Z,10.63
2018-01-31T09:20:08.434Z,12.40
2018-01-31T09:22:35.923Z,15.17
2018-01-31T09:25:03.351Z,7.80
2018-01-31T09:27:30.786Z,12.30
2018-01-31T09:29:58.165Z,13.20
2018-01-31T09:32:25.587Z,9.40
2018-01-31T09:34:52.977Z,14.23
2018-01-31T09:37:20.607Z,9.67
2018-01-31T09:39:49.304Z,11.80
2018-01-31T09:42:16.749Z,12.77
2018-01-31T09:44:44.193Z,11.57
2018-01-31T09:47:11.676Z,12.30
2018-01-31T09:49:39.081Z,8.93
2018-01-31T09:52:06.503Z,11.53
2018-01-31T09:54:33.895Z,14.60
2018-01-31T09:57:01.353Z,7.97
2018-01-31T09:59:28.818Z,7.07
2018-01-31T10:01:56.331Z,8.77
2018-01-31T10:04:23.834Z,8.77
2018-01-31T10:06:51.206Z,11.13
2018-01-31T10:09:18.638Z,8.87
2018-01-31T10:11:46.085Z,9.10
2018-01-31T10:14:13.543Z,13.20
2018-01-31T10:16:41.026Z,7.50
2018-01-31T10:19:08.569Z,8.40
2018-01-31T10:21:43.059Z,13.17
2018-01-31T10:24:10.461Z,8.53
2018-01-31T10:26:37.977Z,6.50
2018-01-31T10:29:05.366Z,8.23
2018-01-31T10:31:32.930Z,13.23
2018-01-31T10:34:00.468Z,10.03
2018-01-31T10:36:28.177Z,12.90
2018-01-31T10:38:55.710Z,6.73
2018-01-31T10:41:24.339Z,10.47
2018-01-31T10:43:52.548Z,10.97
2018-01-31T10:46:20.103Z,14.83
2018-01-31T10:48:47.618Z,9.07
2018-01-31T10:51:15.374Z,10.30
2018-01-31T10:58:39.205Z,8.90
2018-01-31T11:01:07.707Z,9.07
2018-01-31T11:03:35.409Z,10.23
2018-01-31T11:06:03.378Z,10.83
2018-01-31T11:08:30.906Z,9.87
2018-01-31T11:10:58.824Z,7.40
2018-01-31T11:13:29.688Z,7.13
2018-01-31T11:15:57.299Z,6.20
2018-01-31T11:18:25.433Z,9.50
2018-01-31T11:20:52.919Z,6.93
2018-01-31T11:23:21.181Z,6.67
2018-01-31T11:25:48.728Z,11.10
2018-01-31T11:28:16.624Z,9.33
2018-01-31T11:30:44.108Z,6.47
2018-01-31T11:33:11.819Z,8.50
2018-01-31T11:35:39.535Z,12.87
2018-01-31T11:38:07.263Z,9.17
2018-01-31T11:40:35.002Z,9.07
2018-01-31T11:43:02.965Z,8.60
2018-01-31T11:45:30.834Z,8.70
2018-01-31T11:47:58.459Z,9.47
2018-01-31T11:50:26.349Z,7.40
2018-01-31T11:52:54.585Z,8.83
2018-01-31T11:55:22.337Z,4.57
2018-01-31T11:57:51.142Z,9.33
2018-01-31T12:00:20.332Z,8.10
2018-01-31T12:02:50.013Z,7.33
2018-01-31T12:05:18.635Z,5.13
2018-01-31T12:07:46.472Z,7.67
2018-01-31T12:10:15.177Z,9.23
2018-01-31T12:12:42.801Z,9.33
2018-01-31T12:15:10.408Z,9.70
2018-01-31T12:17:37.867Z,7.37
2018-01-31T12:20:05.230Z,8.63
2018-01-31T12:22:32.660Z,7.63
2018-01-31T12:25:00.173Z,10.60
2018-01-31T12:27:27.593Z,11.07
2018-01-31T12:29:55.209Z,7.57
2018-01-31T12:32:22.691Z,9.87
2018-01-31T12:34:50.125Z,7.27
2018-01-31T12:37:17.984Z,6.47
2018-01-31T12:39:45.500Z,8.63
2018-01-31T12:42:13.058Z,8.63
2018-01-31T12:44:40.506Z,8.73
2018-01-31T12:47:07.989Z,7.97
2018-01-31T12:49:36.301Z,7.47
2018-01-31T12:52:03.830Z,7.90
2018-01-31T12:54:31.266Z,6.07
2018-01-31T12:56:58.827Z,8.43
2018-01-31T12:59:26.234Z,10.80
2018-01-31T13:01:53.724Z,6.63
2018-01-31T13:04:21.242Z,9.43
2018-01-31T13:06:48.670Z,5.60
2018-01-31T13:09:16.133Z,7.60
2018-01-31T13:11:43.558Z,5.87
2018-01-31T13:14:11.106Z,12.87
2018-01-31T13:16:38.690Z,5.10
2018-01-31T13:19:06.091Z,5.67
2018-01-31T13:21:33.694Z,9.90
2018-01-31T13:24:01.200Z,11.67
2018-01-31T13:26:28.844Z,9.67
2018-01-31T13:28:56.362Z,11.87
2018-01-31T13:31:23.981Z,6.57
2018-01-31T13:33:51.419Z,7.13
2018-01-31T13:36:18.908Z,5.57
2018-01-31T13:38:47.701Z,7.77
2018-01-31T13:41:15.124Z,7.23
2018-01-31T13:43:42.589Z,7.40
2018-01-31T13:46:10.078Z,6.00
2018-01-31T13:48:37.588Z,9.07
2018-01-31T13:51:05.005Z,6.90
2018-01-31T13:53:32.582Z,5.70
2018-01-31T13:56:00.006Z,6.20
2018-01-31T13:58:27.503Z,7.23
2018-01-31T14:00:55.089Z,6.83
2018-01-31T14:03:22.682Z,5.53
2018-01-31T14:05:50.414Z,7.00
2018-01-31T14:08:18.023Z,4.93
2018-01-31T14:10:46.676Z,15.93
2018-01-31T14:13:15.286Z,8.20
2018-01-31T14:15:42.747Z,9.23
2018-01-31T14:18:10.199Z,6.57
2018-01-31T14:20:38.622Z,6.53
2018-01-31T14:23:06.097Z,7.93
2018-01-31T14:25:33.707Z,7.17
2018-01-31T14:28:01.211Z,6.83
2018-01-31T14:30:28.605Z,9.43
2018-01-31T14:32:56.544Z,9.77
2018-01-31T14:35:23.992Z,9.20
2018-01-31T14:37:51.804Z,8.40
2018-01-31T14:40:19.230Z,9.83
2018-01-31T14:42:47.322Z,8.27
2018-01-31T14:45:14.910Z,10.00
2018-01-31T14:47:42.602Z,7.07
2018-01-31T14:50:10.061Z,8.30
2018-01-31T14:52:37.454Z,9.20
2018-01-31T14:55:04.834Z,10.13
2018-01-31T14:57:32.264Z,10.47
2018-01-31T14:59:59.812Z,8.27
2018-01-31T15:02:27.238Z,10.53
2018-01-31T15:04:54.630Z,10.50
2018-01-31T15:07:22.185Z,7.67
2018-01-31T15:09:49.656Z,10.23
2018-01-31T15:12:17.088Z,11.33
2018-01-31T15:14:44.531Z,17.10
2018-01-31T15:17:12.005Z,13.60
2018-01-31T15:19:39.447Z,15.13
2018-01-31T15:22:06.836Z,15.53
2018-01-31T15:24:34.266Z,13.07
2018-01-31T15:27:01.697Z,15.63
2018-01-31T15:29:29.146Z,19.43
2018-01-31T15:31:56.578Z,17.80
2018-01-31T15:34:23.996Z,15.73
2018-01-31T15:36:51.439Z,25.40
2018-01-31T15:39:18.899Z,18.77
2018-01-31T15:41:46.341Z,20.23
2018-01-31T15:44:13.739Z,19.73
2018-01-31T15:46:41.168Z,23.30
2018-01-31T15:49:08.579Z,21.30
2018-01-31T15:51:36.054Z,25.97
2018-01-31T15:54:03.465Z,27.60
2018-01-31T15:56:30.875Z,30.90
2018-01-31T15:58:58.347Z,32.43
2018-01-31T16:01:25.747Z,32.13
2018-01-31T16:03:53.167Z,27.80
2018-01-31T16:06:20.742Z,28.90
2018-01-31T16:08:48.403Z,31.23
2018-01-31T16:11:15.841Z,30.77
2018-01-31T16:13:43.231Z,32.77
2018-01-31T16:16:10.641Z,32.17
2018-01-31T16:18:38.119Z,26.73
2018-01-31T16:21:05.559Z,26.17
2018-01-31T16:23:32.966Z,34.10
2018-01-31T16:26:00.373Z,28.80
2018-01-31T16:28:27.799Z,29.03
2018-01-31T16:30:55.225Z,24.97
2018-01-31T16:33:22.621Z,25.87
2018-01-31T16:35:50.062Z,23.93
2018-01-31T16:38:17.438Z,25.17
2018-01-31T16:40:44.853Z,24.07
2018-01-31T16:43:12.337Z,23.10
2018-01-31T16:45:39.755Z,24.97
2018-01-31T16:48:07.159Z,22.57
2018-01-31T16:50:34.569Z,24.23
2018-01-31T16:53:01.981Z,23.97
2018-01-31T16:55:29.372Z,21.27
2018-01-31T16:57:56.809Z,22.33
2018-01-31T17:00:24.212Z,19.77
2018-01-31T17:02:51.738Z,18.90
2018-01-31T17:05:19.129Z,19.23
2018-01-31T17:07:46.515Z,21.63
2018-01-31T17:16:55.321Z,22.03
2018-01-31T17:19:22.727Z,21.03
2018-01-31T17:21:50.316Z,23.10
2018-01-31T17:24:17.655Z,18.17
2018-01-31T17:26:45.034Z,22.10
2018-01-31T17:29:12.522Z,19.80
2018-01-31T17:31:39.898Z,18.17
2018-01-31T17:34:07.279Z,19.80
2018-01-31T17:36:34.703Z,19.83
2018-01-31T17:39:02.221Z,17.70
2018-01-31T17:41:29.670Z,16.83
2018-01-31T17:43:57.130Z,18.00
2018-01-31T17:46:24.527Z,17.77
2018-01-31T17:48:51.975Z,17.90
2018-01-31T17:51:19.352Z,15.80
2018-01-31T17:53:46.707Z,15.33
2018-01-31T17:56:14.162Z,13.53
2018-01-31T17:58:41.601Z,15.67
2018-01-31T18:01:09.003Z,14.37
2018-01-31T18:03:36.385Z,13.60
2018-01-31T18:06:03.830Z,15.77
2018-01-31T18:08:31.252Z,13.87
2018-01-31T18:10:58.702Z,13.90
2018-01-31T18:13:26.121Z,13.17
2018-01-31T18:15:53.554Z,12.97
2018-01-31T18:18:20.962Z,16.13
2018-01-31T18:20:48.477Z,13.27
2018-01-31T18:23:15.874Z,13.07
2018-01-31T18:25:43.359Z,14.77
2018-01-31T18:28:10.762Z,15.80
2018-01-31T18:30:38.214Z,16.07
2018-01-31T18:33:05.641Z,12.60
2018-01-31T18:35:33.041Z,14.73
2018-01-31T18:38:00.452Z,12.23
2018-01-31T18:40:27.963Z,12.07
2018-01-31T18:42:55.343Z,12.47
2018-01-31T18:45:22.756Z,14.20
2018-01-31T18:47:50.208Z,13.47
2018-01-31T18:50:17.659Z,12.70
2018-01-31T18:52:45.039Z,12.07
2018-01-31T18:55:12.465Z,13.57
2018-01-31T18:57:39.836Z,12.40
2018-01-31T19:00:07.265Z,13.30
2018-01-31T19:02:34.733Z,13.63
2018-01-31T19:05:02.231Z,11.93
2018-01-31T19:07:29.622Z,12.83
2018-01-31T19:09:57.063Z,14.67
2018-01-31T19:12:24.541Z,14.87
2018-01-31T19:14:51.968Z,13.57
2018-01-31T19:17:19.427Z,13.53
2018-01-31T19:19:46.867Z,16.37
2018-01-31T19:22:14.297Z,13.37
2018-01-31T19:24:41.733Z,12.60
2018-01-31T19:27:09.136Z,14.70
2018-01-31T19:29:36.585Z,14.10
2018-01-31T19:32:03.991Z,15.03
2018-01-31T19:34:31.429Z,13.00
2018-01-31T19:36:58.910Z,13.33
2018-01-31T19:39:26.375Z,13.00
2018-01-31T19:41:53.836Z,14.10
2018-01-31T19:44:21.216Z,13.73
2018-01-31T19:46:48.711Z,13.03
2018-01-31T19:49:16.093Z,13.97
2018-01-31T19:51:43.490Z,14.27
2018-01-31T19:54:10.890Z,12.67
2018-01-31T19:56:38.341Z,13.87
2018-01-31T19:59:05.776Z,11.47
2018-01-31T20:01:33.216Z,11.30
2018-01-31T20:04:00.604Z,12.67
2018-01-31T20:06:28.044Z,12.03
2018-01-31T20:08:55.445Z,12.30
2018-01-31T20:11:22.834Z,12.77
2018-01-31T20:13:50.266Z,12.53
2018-01-31T20:16:17.633Z,13.10
2018-01-31T20:18:45.074Z,11.13
2018-01-31T20:21:12.457Z,11.63
2018-01-31T20:23:39.883Z,12.50
2018-01-31T20:26:07.263Z,10.90
2018-01-31T20:28:34.695Z,11.17
2018-01-31T20:31:02.083Z,11.27
2018-01-31T20:33:29.589Z,11.07
2018-01-31T20:35:56.994Z,11.20
2018-01-31T20:38:24.411Z,11.57
2018-01-31T20:40:51.827Z,11.40
2018-01-31T20:43:19.376Z,10.57
2018-01-31T20:45:46.745Z,10.97
2018-01-31T20:48:14.166Z,13.17
2018-01-31T20:50:41.628Z,11.30
2018-01-31T20:53:09.004Z,10.93
2018-01-31T20:55:36.374Z,10.00
2018-01-31T20:58:03.780Z,11.00
2018-01-31T21:00:31.230Z,10.77
2018-01-31T21:02:58.611Z,11.07
2018-01-31T21:05:26.025Z,10.50
2018-01-31T21:07:53.411Z,10.10
2018-01-31T21:10:20.775Z,10.27
2018-01-31T21:12:48.192Z,10.07
2018-01-31T21:15:15.582Z,10.70
2018-01-31T21:17:42.948Z,10.90
2018-01-31T21:20:10.347Z,10.30
2018-01-31T21:22:37.799Z,10.23
2018-01-31T21:25:05.226Z,10.90
2018-01-31T21:27:32.624Z,9.93
2018-01-31T21:30:00.088Z,10.30
2018-01-31T21:32:27.486Z,9.90
2018-01-31T21:34:55.266Z,9.90
2018-01-31T21:37:22.619Z,10.10
2018-01-31T21:39:50.048Z,10.30
2018-01-31T21:42:17.409Z,9.30
2018-01-31T21:44:44.868Z,10.40
2018-01-31T21:47:12.302Z,10.70
2018-01-31T21:49:39.773Z,9.93
2018-01-31T21:52:07.214Z,10.10
2018-01-31T21:54:34.578Z,10.37
2018-01-31T21:57:01.959Z,10.27
2018-01-31T21:59:29.356Z,9.43
2018-01-31T22:01:56.696Z,10.10
2018-01-31T22:04:24.147Z,10.10
2018-01-31T22:06:51.508Z,9.50
2018-01-31T22:09:18.909Z,9.17
2018-01-31T22:11:46.257Z,9.87
2018-01-31T22:14:13.662Z,9.53
2018-01-31T22:16:41.066Z,9.20
2018-01-31T22:19:08.464Z,10.13
2018-01-31T22:21:35.802Z,8.80
2018-01-31T22:24:03.227Z,9.83
2018-01-31T22:26:30.610Z,9.10
2018-01-31T22:28:58.005Z,9.03
2018-01-31T22:31:25.402Z,9.50
2018-01-31T22:33:52.796Z,9.17
2018-01-31T22:36:20.178Z,8.60
2018-01-31T22:38:47.573Z,8.67
2018-01-31T22:41:14.980Z,8.90
2018-01-31T22:43:42.365Z,8.90
2018-01-31T22:46:09.725Z,8.20
2018-01-31T22:48:37.159Z,9.63
2018-01-31T22:51:04.529Z,8.73
2018-01-31T22:53:31.902Z,8.77
2018-01-31T22:55:59.295Z,8.33
2018-01-31T22:58:26.657Z,7.87
2018-01-31T23:00:54.101Z,9.43
2018-01-31T23:03:21.471Z,8.13
2018-01-31T23:05:48.886Z,9.23
2018-01-31T23:08:16.270Z,9.17
2018-01-31T23:10:43.655Z,8.57
2018-01-31T23:13:11.096Z,9.23
2018-01-31T23:15:38.442Z,9.30
2018-01-31T23:18:05.801Z,7.87
2018-01-31T23:20:33.208Z,7.80
2018-01-31T23:23:00.559Z,8.47
2018-01-31T23:25:27.918Z,9.13
2018-01-31T23:27:55.326Z,8.20
2018-01-31T23:30:22.696Z,8.47
2018-01-31T23:32:50.062Z,9.80
2018-01-31T23:35:17.418Z,8.33
2018-01-31T23:37:44.844Z,8.87
2018-01-31T23:40:12.202Z,8.43
2018-01-31T23:42:39.618Z,8.57
2018-01-31T23:45:06.966Z,8.63
2018-01-31T23:47:34.371Z,8.90
2018-01-31T23:50:01.796Z,8.73
2018-01-31T23:52:29.186Z,8.40
2018-01-31T23:54:56.555Z,8.90
2018-01-31T23:57:23.990Z,8.30
2018-01-31T23:59:51.376Z,8.33
